sensor_id;sensor_type;location;lat;lon;timestamp;P1;durP1;ratioP1;P2;durP2;ratioP2
46198;SDS011;31928;52.104;10.030;2023-03-01T00:00:07;9.05;;;8.45;;
46198;SDS011;31928;52.104;10.030;2023-03-01T00:02:34;8.35;;;7.75;;
46198;SDS011;31928;52.104;10.030;2023-03-01T00:07:28;9.30;;;8.60;;
46198;SDS011;31928;52.104;10.030;2023-03-01T00:09:54;8.60;;;8.00;;
46198;SDS011;31928;52.104;10.030;2023-03-01T00:12:21;8.93;;;8.23;;
46198;SDS011;31928;52.104;10.030;2023-03-01T00:17:14;8.80;;;8.20;;
46198;SDS011;31928;52.104;10.030;2023-03-01T00:19:41;8.48;;;7.88;;
46198;SDS011;31928;52.104;10.030;2023-03-01T00:22:07;9.20;;;8.43;;
46198;SDS011;31928;52.104;10.030;2023-03-01T00:24:34;8.98;;;8.27;;
46198;SDS011;31928;52.104;10.030;2023-03-01T00:27:00;7.97;;;7.47;;
46198;SDS011;31928;52.104;10.030;2023-03-01T00:29:29;8.90;;;8.20;;
46198;SDS011;31928;52.104;10.030;2023-03-01T00:31:55;8.73;;;8.13;;
46198;SDS011;31928;52.104;10.030;2023-03-01T00:34:24;7.40;;;7.00;;
46198;SDS011;31928;52.104;10.030;2023-03-01T00:36:51;8.07;;;7.57;;
46198;SDS011;31928;52.104;10.030;2023-03-01T00:39:17;8.82;;;8.25;;
46198;SDS011;31928;52.104;10.030;2023-03-01T00:41:44;7.93;;;7.43;;
46198;SDS011;31928;52.104;10.030;2023-03-01T00:44:12;7.60;;;7.15;;
46198;SDS011;31928;52.104;10.030;2023-03-01T00:46:38;7.88;;;7.28;;
46198;SDS011;31928;52.104;10.030;2023-03-01T00:49:05;7.80;;;7.32;;
46198;SDS011;31928;52.104;10.030;2023-03-01T00:51:31;8.60;;;8.00;;
46198;SDS011;31928;52.104;10.030;2023-03-01T00:56:26;7.13;;;6.63;;
46198;SDS011;31928;52.104;10.030;2023-03-01T00:58:54;7.38;;;6.97;;
46198;SDS011;31928;52.104;10.030;2023-03-01T01:01:21;7.03;;;6.63;;
46198;SDS011;31928;52.104;10.030;2023-03-01T01:03:51;8.02;;;7.53;;
46198;SDS011;31928;52.104;10.030;2023-03-01T01:06:21;8.05;;;7.45;;
46198;SDS011;31928;52.104;10.030;2023-03-01T01:08:52;8.05;;;7.45;;
46198;SDS011;31928;52.104;10.030;2023-03-01T01:11:21;7.72;;;7.13;;
46198;SDS011;31928;52.104;10.030;2023-03-01T01:13:48;8.55;;;7.95;;
46198;SDS011;31928;52.104;10.030;2023-03-01T01:16:16;7.50;;;7.00;;
46198;SDS011;31928;52.104;10.030;2023-03-01T01:18:44;7.75;;;7.25;;
46198;SDS011;31928;52.104;10.030;2023-03-01T01:21:12;7.80;;;7.20;;
46198;SDS011;31928;52.104;10.030;2023-03-01T01:23:41;7.80;;;7.28;;
46198;SDS011;31928;52.104;10.030;2023-03-01T01:26:10;7.68;;;7.18;;
46198;SDS011;31928;52.104;10.030;2023-03-01T01:28:38;8.23;;;7.55;;
46198;SDS011;31928;52.104;10.030;2023-03-01T01:31:05;7.18;;;6.78;;
46198;SDS011;31928;52.104;10.030;2023-03-01T01:33:32;8.10;;;7.60;;
46198;SDS011;31928;52.104;10.030;2023-03-01T01:35:59;7.38;;;6.90;;
46198;SDS011;31928;52.104;10.030;2023-03-01T01:38:26;8.00;;;7.53;;
46198;SDS011;31928;52.104;10.030;2023-03-01T01:40:52;8.88;;;8.10;;
46198;SDS011;31928;52.104;10.030;2023-03-01T01:43:21;8.15;;;7.60;;
46198;SDS011;31928;52.104;10.030;2023-03-01T01:45:47;7.50;;;7.10;;
46198;SDS011;31928;52.104;10.030;2023-03-01T01:48:16;7.63;;;7.13;;
46198;SDS011;31928;52.104;10.030;2023-03-01T01:50:51;8.35;;;7.80;;
46198;SDS011;31928;52.104;10.030;2023-03-01T01:53:23;8.10;;;7.50;;
46198;SDS011;31928;52.104;10.030;2023-03-01T01:55:54;7.75;;;7.22;;
46198;SDS011;31928;52.104;10.030;2023-03-01T01:58:25;7.72;;;7.28;;
46198;SDS011;31928;52.104;10.030;2023-03-01T02:00:53;8.23;;;7.63;;
46198;SDS011;31928;52.104;10.030;2023-03-01T02:05:55;7.55;;;6.93;;
46198;SDS011;31928;52.104;10.030;2023-03-01T02:08:27;7.80;;;7.30;;
46198;SDS011;31928;52.104;10.030;2023-03-01T02:10:57;7.65;;;7.13;;
46198;SDS011;31928;52.104;10.030;2023-03-01T02:13:26;8.40;;;7.80;;
46198;SDS011;31928;52.104;10.030;2023-03-01T02:15:53;8.27;;;7.68;;
46198;SDS011;31928;52.104;10.030;2023-03-01T02:23:14;7.95;;;7.43;;
46198;SDS011;31928;52.104;10.030;2023-03-01T02:30:44;7.93;;;7.32;;
46198;SDS011;31928;52.104;10.030;2023-03-01T02:33:34;8.63;;;8.02;;
46198;SDS011;31928;52.104;10.030;2023-03-01T02:36:06;7.85;;;7.35;;
46198;SDS011;31928;52.104;10.030;2023-03-01T02:38:37;9.13;;;8.32;;
46198;SDS011;31928;52.104;10.030;2023-03-01T02:41:04;8.10;;;7.50;;
46198;SDS011;31928;52.104;10.030;2023-03-01T02:43:32;8.02;;;7.53;;
46198;SDS011;31928;52.104;10.030;2023-03-01T02:46:04;8.13;;;7.63;;
46198;SDS011;31928;52.104;10.030;2023-03-01T02:48:40;8.35;;;7.80;;
46198;SDS011;31928;52.104;10.030;2023-03-01T02:54:47;7.63;;;7.03;;
46198;SDS011;31928;52.104;10.030;2023-03-01T02:57:25;7.80;;;7.35;;
46198;SDS011;31928;52.104;10.030;2023-03-01T02:59:54;7.63;;;7.15;;
46198;SDS011;31928;52.104;10.030;2023-03-01T03:02:23;8.20;;;7.60;;
46198;SDS011;31928;52.104;10.030;2023-03-01T03:05:22;7.75;;;7.25;;
46198;SDS011;31928;52.104;10.030;2023-03-01T03:07:52;8.43;;;7.93;;
46198;SDS011;31928;52.104;10.030;2023-03-01T03:10:20;8.18;;;7.65;;
46198;SDS011;31928;52.104;10.030;2023-03-01T03:12:52;7.80;;;7.32;;
46198;SDS011;31928;52.104;10.030;2023-03-01T03:15:22;8.98;;;8.38;;
46198;SDS011;31928;52.104;10.030;2023-03-01T03:17:50;7.93;;;7.35;;
46198;SDS011;31928;52.104;10.030;2023-03-01T03:20:19;8.75;;;8.15;;
46198;SDS011;31928;52.104;10.030;2023-03-01T03:22:48;8.70;;;8.00;;
46198;SDS011;31928;52.104;10.030;2023-03-01T03:25:16;8.65;;;8.05;;
46198;SDS011;31928;52.104;10.030;2023-03-01T03:27:45;8.55;;;7.90;;
46198;SDS011;31928;52.104;10.030;2023-03-01T03:30:14;8.98;;;8.27;;
46198;SDS011;31928;52.104;10.030;2023-03-01T03:32:43;8.05;;;7.65;;
46198;SDS011;31928;52.104;10.030;2023-03-01T03:35:20;8.95;;;8.30;;
46198;SDS011;31928;52.104;10.030;2023-03-01T03:37:50;8.05;;;7.45;;
46198;SDS011;31928;52.104;10.030;2023-03-01T03:40:40;8.43;;;7.93;;
46198;SDS011;31928;52.104;10.030;2023-03-01T03:43:15;8.30;;;7.70;;
46198;SDS011;31928;52.104;10.030;2023-03-01T03:45:44;8.27;;;7.78;;
46198;SDS011;31928;52.104;10.030;2023-03-01T03:48:12;8.30;;;7.75;;
46198;SDS011;31928;52.104;10.030;2023-03-01T03:53:08;8.38;;;7.85;;
46198;SDS011;31928;52.104;10.030;2023-03-01T03:55:38;7.32;;;6.82;;
46198;SDS011;31928;52.104;10.030;2023-03-01T03:58:06;8.00;;;7.45;;
46198;SDS011;31928;52.104;10.030;2023-03-01T04:00:37;9.27;;;8.50;;
46198;SDS011;31928;52.104;10.030;2023-03-01T04:03:08;8.77;;;8.07;;
46198;SDS011;31928;52.104;10.030;2023-03-01T04:05:36;8.02;;;7.43;;
46198;SDS011;31928;52.104;10.030;2023-03-01T04:08:03;8.40;;;7.63;;
46198;SDS011;31928;52.104;10.030;2023-03-01T04:10:37;8.25;;;7.75;;
46198;SDS011;31928;52.104;10.030;2023-03-01T04:13:12;7.88;;;7.30;;
46198;SDS011;31928;52.104;10.030;2023-03-01T04:15:41;8.07;;;7.50;;
46198;SDS011;31928;52.104;10.030;2023-03-01T04:18:12;8.25;;;7.65;;
46198;SDS011;31928;52.104;10.030;2023-03-01T04:20:40;8.00;;;7.40;;
46198;SDS011;31928;52.104;10.030;2023-03-01T04:23:08;8.38;;;7.78;;
46198;SDS011;31928;52.104;10.030;2023-03-01T04:25:45;9.43;;;8.75;;
46198;SDS011;31928;52.104;10.030;2023-03-01T04:28:11;7.57;;;7.07;;
46198;SDS011;31928;52.104;10.030;2023-03-01T04:30:38;8.57;;;7.90;;
46198;SDS011;31928;52.104;10.030;2023-03-01T04:33:05;8.05;;;7.47;;
46198;SDS011;31928;52.104;10.030;2023-03-01T04:35:33;8.05;;;7.55;;
46198;SDS011;31928;52.104;10.030;2023-03-01T04:38:01;7.75;;;7.30;;
46198;SDS011;31928;52.104;10.030;2023-03-01T04:40:28;9.23;;;8.43;;
46198;SDS011;31928;52.104;10.030;2023-03-01T04:45:22;6.90;;;6.40;;
46198;SDS011;31928;52.104;10.030;2023-03-01T04:47:49;7.32;;;6.82;;
46198;SDS011;31928;52.104;10.030;2023-03-01T04:50:18;7.05;;;6.65;;
46198;SDS011;31928;52.104;10.030;2023-03-01T04:52:50;7.75;;;7.30;;
46198;SDS011;31928;52.104;10.030;2023-03-01T04:55:17;8.45;;;7.88;;
46198;SDS011;31928;52.104;10.030;2023-03-01T05:00:11;9.73;;;8.93;;
46198;SDS011;31928;52.104;10.030;2023-03-01T05:05:24;8.77;;;8.18;;
46198;SDS011;31928;52.104;10.030;2023-03-01T05:08:02;9.68;;;8.82;;
46198;SDS011;31928;52.104;10.030;2023-03-01T05:10:31;9.25;;;8.55;;
46198;SDS011;31928;52.104;10.030;2023-03-01T05:12:59;8.85;;;8.15;;
46198;SDS011;31928;52.104;10.030;2023-03-01T05:15:26;9.57;;;8.73;;
46198;SDS011;31928;52.104;10.030;2023-03-01T05:17:54;7.90;;;7.30;;
46198;SDS011;31928;52.104;10.030;2023-03-01T05:20:24;9.60;;;8.88;;
46198;SDS011;31928;52.104;10.030;2023-03-01T05:22:52;9.63;;;8.82;;
46198;SDS011;31928;52.104;10.030;2023-03-01T05:25:21;9.50;;;8.73;;
46198;SDS011;31928;52.104;10.030;2023-03-01T05:27:48;9.23;;;8.52;;
46198;SDS011;31928;52.104;10.030;2023-03-01T05:30:14;9.48;;;8.68;;
46198;SDS011;31928;52.104;10.030;2023-03-01T05:32:42;9.63;;;8.93;;
46198;SDS011;31928;52.104;10.030;2023-03-01T05:35:11;9.38;;;8.70;;
46198;SDS011;31928;52.104;10.030;2023-03-01T05:37:42;8.02;;;7.43;;
46198;SDS011;31928;52.104;10.030;2023-03-01T05:40:10;10.90;;;9.10;;
46198;SDS011;31928;52.104;10.030;2023-03-01T05:42:42;10.70;;;9.68;;
46198;SDS011;31928;52.104;10.030;2023-03-01T05:45:14;9.75;;;8.48;;
46198;SDS011;31928;52.104;10.030;2023-03-01T05:47:42;8.60;;;7.80;;
46198;SDS011;31928;52.104;10.030;2023-03-01T05:50:44;8.90;;;8.10;;
46198;SDS011;31928;52.104;10.030;2023-03-01T05:53:07;9.48;;;8.63;;
46198;SDS011;31928;52.104;10.030;2023-03-01T05:55:36;10.00;;;9.10;;
46198;SDS011;31928;52.104;10.030;2023-03-01T05:58:05;9.50;;;8.65;;
46198;SDS011;31928;52.104;10.030;2023-03-01T06:00:34;9.70;;;9.00;;
46198;SDS011;31928;52.104;10.030;2023-03-01T06:03:01;10.25;;;9.20;;
46198;SDS011;31928;52.104;10.030;2023-03-01T06:05:29;9.65;;;8.38;;
46198;SDS011;31928;52.104;10.030;2023-03-01T06:07:58;18.23;;;10.48;;
46198;SDS011;31928;52.104;10.030;2023-03-01T06:10:26;8.52;;;7.75;;
46198;SDS011;31928;52.104;10.030;2023-03-01T06:12:53;9.85;;;8.90;;
46198;SDS011;31928;52.104;10.030;2023-03-01T06:15:19;8.95;;;8.20;;
46198;SDS011;31928;52.104;10.030;2023-03-01T06:17:46;8.70;;;7.95;;
46198;SDS011;31928;52.104;10.030;2023-03-01T06:20:20;8.75;;;8.05;;
46198;SDS011;31928;52.104;10.030;2023-03-01T06:22:49;9.27;;;8.40;;
46198;SDS011;31928;52.104;10.030;2023-03-01T06:25:17;8.55;;;7.95;;
46198;SDS011;31928;52.104;10.030;2023-03-01T06:27:46;10.02;;;9.02;;
46198;SDS011;31928;52.104;10.030;2023-03-01T06:30:14;10.00;;;9.18;;
46198;SDS011;31928;52.104;10.030;2023-03-01T06:32:43;10.13;;;9.32;;
46198;SDS011;31928;52.104;10.030;2023-03-01T06:35:10;9.77;;;9.00;;
46198;SDS011;31928;52.104;10.030;2023-03-01T06:37:38;8.48;;;7.80;;
46198;SDS011;31928;52.104;10.030;2023-03-01T06:40:05;9.38;;;8.68;;
46198;SDS011;31928;52.104;10.030;2023-03-01T06:42:38;9.35;;;8.65;;
46198;SDS011;31928;52.104;10.030;2023-03-01T06:45:06;10.07;;;9.20;;
46198;SDS011;31928;52.104;10.030;2023-03-01T06:47:33;9.98;;;9.20;;
46198;SDS011;31928;52.104;10.030;2023-03-01T06:50:01;9.85;;;9.07;;
46198;SDS011;31928;52.104;10.030;2023-03-01T06:52:28;9.80;;;9.00;;
46198;SDS011;31928;52.104;10.030;2023-03-01T06:54:55;9.20;;;8.60;;
46198;SDS011;31928;52.104;10.030;2023-03-01T06:57:22;9.55;;;8.80;;
46198;SDS011;31928;52.104;10.030;2023-03-01T06:59:48;9.38;;;8.60;;
46198;SDS011;31928;52.104;10.030;2023-03-01T07:02:15;8.98;;;8.27;;
46198;SDS011;31928;52.104;10.030;2023-03-01T07:04:42;9.95;;;9.05;;
46198;SDS011;31928;52.104;10.030;2023-03-01T07:07:09;8.88;;;8.25;;
46198;SDS011;31928;52.104;10.030;2023-03-01T07:12:02;10.32;;;9.60;;
46198;SDS011;31928;52.104;10.030;2023-03-01T07:14:29;9.88;;;8.88;;
46198;SDS011;31928;52.104;10.030;2023-03-01T07:16:56;9.55;;;8.85;;
46198;SDS011;31928;52.104;10.030;2023-03-01T07:19:23;9.80;;;9.13;;
46198;SDS011;31928;52.104;10.030;2023-03-01T07:21:49;11.10;;;10.25;;
46198;SDS011;31928;52.104;10.030;2023-03-01T07:24:16;10.95;;;10.20;;
46198;SDS011;31928;52.104;10.030;2023-03-01T07:26:42;9.70;;;8.95;;
46198;SDS011;31928;52.104;10.030;2023-03-01T07:29:09;10.07;;;9.18;;
46198;SDS011;31928;52.104;10.030;2023-03-01T07:31:36;10.52;;;9.57;;
46198;SDS011;31928;52.104;10.030;2023-03-01T07:34:03;10.23;;;9.38;;
46198;SDS011;31928;52.104;10.030;2023-03-01T07:36:30;11.02;;;10.10;;
46198;SDS011;31928;52.104;10.030;2023-03-01T07:38:57;9.77;;;9.07;;
46198;SDS011;31928;52.104;10.030;2023-03-01T07:41:24;10.65;;;9.85;;
46198;SDS011;31928;52.104;10.030;2023-03-01T07:43:51;10.45;;;9.73;;
46198;SDS011;31928;52.104;10.030;2023-03-01T07:46:17;9.75;;;9.00;;
46198;SDS011;31928;52.104;10.030;2023-03-01T07:48:45;10.30;;;9.50;;
46198;SDS011;31928;52.104;10.030;2023-03-01T07:51:12;10.25;;;9.38;;
46198;SDS011;31928;52.104;10.030;2023-03-01T07:53:39;9.20;;;8.50;;
46198;SDS011;31928;52.104;10.030;2023-03-01T07:56:07;10.02;;;9.30;;
46198;SDS011;31928;52.104;10.030;2023-03-01T07:58:35;10.05;;;9.25;;
46198;SDS011;31928;52.104;10.030;2023-03-01T08:01:03;11.73;;;10.60;;
46198;SDS011;31928;52.104;10.030;2023-03-01T08:03:34;12.82;;;11.70;;
46198;SDS011;31928;52.104;10.030;2023-03-01T08:06:03;13.38;;;11.98;;
46198;SDS011;31928;52.104;10.030;2023-03-01T08:08:31;14.15;;;12.75;;
46198;SDS011;31928;52.104;10.030;2023-03-01T08:10:59;12.38;;;11.20;;
46198;SDS011;31928;52.104;10.030;2023-03-01T08:13:27;12.35;;;11.10;;
46198;SDS011;31928;52.104;10.030;2023-03-01T08:15:53;12.00;;;10.90;;
46198;SDS011;31928;52.104;10.030;2023-03-01T08:18:20;13.02;;;11.82;;
46198;SDS011;31928;52.104;10.030;2023-03-01T08:20:47;13.05;;;11.95;;
46198;SDS011;31928;52.104;10.030;2023-03-01T08:23:14;13.20;;;11.88;;
46198;SDS011;31928;52.104;10.030;2023-03-01T08:25:41;11.98;;;10.80;;
46198;SDS011;31928;52.104;10.030;2023-03-01T08:28:07;10.48;;;9.57;;
46198;SDS011;31928;52.104;10.030;2023-03-01T08:30:34;10.48;;;9.68;;
46198;SDS011;31928;52.104;10.030;2023-03-01T08:33:01;10.57;;;9.68;;
46198;SDS011;31928;52.104;10.030;2023-03-01T08:35:28;15.45;;;13.90;;
46198;SDS011;31928;52.104;10.030;2023-03-01T08:37:54;19.80;;;17.00;;
46198;SDS011;31928;52.104;10.030;2023-03-01T08:40:21;20.30;;;16.33;;
46198;SDS011;31928;52.104;10.030;2023-03-01T08:42:47;21.58;;;17.17;;
46198;SDS011;31928;52.104;10.030;2023-03-01T08:45:14;21.23;;;16.73;;
46198;SDS011;31928;52.104;10.030;2023-03-01T08:47:44;17.05;;;15.23;;
46198;SDS011;31928;52.104;10.030;2023-03-01T08:50:11;20.50;;;16.88;;
46198;SDS011;31928;52.104;10.030;2023-03-01T08:52:38;19.33;;;16.02;;
46198;SDS011;31928;52.104;10.030;2023-03-01T08:55:05;14.02;;;12.20;;
46198;SDS011;31928;52.104;10.030;2023-03-01T08:57:32;14.05;;;12.68;;
46198;SDS011;31928;52.104;10.030;2023-03-01T08:59:58;13.60;;;12.27;;
46198;SDS011;31928;52.104;10.030;2023-03-01T09:02:25;11.93;;;10.82;;
46198;SDS011;31928;52.104;10.030;2023-03-01T09:04:51;13.30;;;11.90;;
46198;SDS011;31928;52.104;10.030;2023-03-01T09:07:18;11.57;;;10.40;;
46198;SDS011;31928;52.104;10.030;2023-03-01T09:09:44;10.70;;;9.70;;
46198;SDS011;31928;52.104;10.030;2023-03-01T09:12:11;10.48;;;9.52;;
46198;SDS011;31928;52.104;10.030;2023-03-01T09:14:38;10.32;;;9.45;;
46198;SDS011;31928;52.104;10.030;2023-03-01T09:17:05;8.30;;;7.63;;
46198;SDS011;31928;52.104;10.030;2023-03-01T09:19:31;8.80;;;7.95;;
46198;SDS011;31928;52.104;10.030;2023-03-01T09:21:58;7.47;;;6.78;;
46198;SDS011;31928;52.104;10.030;2023-03-01T09:24:24;7.88;;;7.18;;
46198;SDS011;31928;52.104;10.030;2023-03-01T09:26:55;11.23;;;10.10;;
46198;SDS011;31928;52.104;10.030;2023-03-01T09:29:22;10.00;;;8.52;;
46198;SDS011;31928;52.104;10.030;2023-03-01T09:31:49;8.60;;;7.88;;
46198;SDS011;31928;52.104;10.030;2023-03-01T09:34:16;9.65;;;8.75;;
46198;SDS011;31928;52.104;10.030;2023-03-01T09:36:45;9.45;;;8.48;;
46198;SDS011;31928;52.104;10.030;2023-03-01T09:39:11;8.65;;;7.85;;
46198;SDS011;31928;52.104;10.030;2023-03-01T09:46:58;8.82;;;8.02;;
46198;SDS011;31928;52.104;10.030;2023-03-01T09:49:27;8.50;;;7.63;;
46198;SDS011;31928;52.104;10.030;2023-03-01T09:52:01;9.10;;;8.27;;
46198;SDS011;31928;52.104;10.030;2023-03-01T09:54:48;8.82;;;8.05;;
46198;SDS011;31928;52.104;10.030;2023-03-01T09:57:26;8.75;;;7.95;;
46198;SDS011;31928;52.104;10.030;2023-03-01T10:02:46;8.02;;;7.43;;
46198;SDS011;31928;52.104;10.030;2023-03-01T10:11:03;7.13;;;6.50;;
46198;SDS011;31928;52.104;10.030;2023-03-01T10:19:30;6.50;;;6.00;;
46198;SDS011;31928;52.104;10.030;2023-03-01T10:22:03;7.68;;;6.90;;
46198;SDS011;31928;52.104;10.030;2023-03-01T10:24:36;6.68;;;6.07;;
46198;SDS011;31928;52.104;10.030;2023-03-01T10:32:47;6.53;;;5.93;;
46198;SDS011;31928;52.104;10.030;2023-03-01T10:35:19;6.05;;;5.55;;
46198;SDS011;31928;52.104;10.030;2023-03-01T10:40:35;6.00;;;5.50;;
46198;SDS011;31928;52.104;10.030;2023-03-01T10:43:15;6.63;;;6.03;;
46198;SDS011;31928;52.104;10.030;2023-03-01T10:45:42;6.55;;;6.05;;
46198;SDS011;31928;52.104;10.030;2023-03-01T10:50:43;6.43;;;5.82;;
46198;SDS011;31928;52.104;10.030;2023-03-01T10:55:58;6.32;;;5.72;;
46198;SDS011;31928;52.104;10.030;2023-03-01T10:58:28;6.88;;;6.18;;
46198;SDS011;31928;52.104;10.030;2023-03-01T11:00:57;6.40;;;5.80;;
46198;SDS011;31928;52.104;10.030;2023-03-01T11:03:27;6.47;;;5.90;;
46198;SDS011;31928;52.104;10.030;2023-03-01T11:06:04;6.13;;;5.53;;
46198;SDS011;31928;52.104;10.030;2023-03-01T11:08:33;6.20;;;5.60;;
46198;SDS011;31928;52.104;10.030;2023-03-01T11:19:07;6.80;;;6.22;;
46198;SDS011;31928;52.104;10.030;2023-03-01T11:21:58;6.15;;;5.55;;
46198;SDS011;31928;52.104;10.030;2023-03-01T11:27:01;8.30;;;7.50;;
46198;SDS011;31928;52.104;10.030;2023-03-01T11:32:38;6.63;;;5.85;;
46198;SDS011;31928;52.104;10.030;2023-03-01T11:37:56;6.25;;;5.68;;
46198;SDS011;31928;52.104;10.030;2023-03-01T11:40:40;6.82;;;5.60;;
46198;SDS011;31928;52.104;10.030;2023-03-01T12:03:26;4.97;;;4.47;;
46198;SDS011;31928;52.104;10.030;2023-03-01T12:09:00;4.85;;;4.30;;
46198;SDS011;31928;52.104;10.030;2023-03-01T12:17:35;4.32;;;4.00;;
46198;SDS011;31928;52.104;10.030;2023-03-01T12:20:24;4.60;;;4.20;;
46198;SDS011;31928;52.104;10.030;2023-03-01T12:26:03;3.80;;;3.50;;
46198;SDS011;31928;52.104;10.030;2023-03-01T12:31:32;5.18;;;4.78;;
46198;SDS011;31928;52.104;10.030;2023-03-01T12:34:22;3.97;;;3.65;;
46198;SDS011;31928;52.104;10.030;2023-03-01T12:40:00;4.13;;;3.83;;
46198;SDS011;31928;52.104;10.030;2023-03-01T12:42:48;3.97;;;3.67;;
46198;SDS011;31928;52.104;10.030;2023-03-01T12:48:23;4.78;;;4.38;;
46198;SDS011;31928;52.104;10.030;2023-03-01T12:51:06;4.72;;;4.32;;
46198;SDS011;31928;52.104;10.030;2023-03-01T12:53:41;5.38;;;4.90;;
46198;SDS011;31928;52.104;10.030;2023-03-01T12:56:14;4.32;;;4.03;;
46198;SDS011;31928;52.104;10.030;2023-03-01T13:09:58;4.78;;;4.38;;
46198;SDS011;31928;52.104;10.030;2023-03-01T13:15:28;4.78;;;4.35;;
46198;SDS011;31928;52.104;10.030;2023-03-01T13:18:00;4.40;;;4.10;;
46198;SDS011;31928;52.104;10.030;2023-03-01T13:20:50;3.80;;;3.50;;
46198;SDS011;31928;52.104;10.030;2023-03-01T13:30:58;3.70;;;3.40;;
46198;SDS011;31928;52.104;10.030;2023-03-01T13:35:57;4.38;;;4.05;;
46198;SDS011;31928;52.104;10.030;2023-03-01T13:46:49;3.97;;;3.58;;
46198;SDS011;31928;52.104;10.030;2023-03-01T13:49:21;3.95;;;3.65;;
46198;SDS011;31928;52.104;10.030;2023-03-01T13:51:53;3.78;;;3.47;;
46198;SDS011;31928;52.104;10.030;2023-03-01T13:56:51;3.85;;;3.55;;
46198;SDS011;31928;52.104;10.030;2023-03-01T13:59:19;4.72;;;3.85;;
46198;SDS011;31928;52.104;10.030;2023-03-01T14:01:54;4.05;;;3.75;;
46198;SDS011;31928;52.104;10.030;2023-03-01T14:04:24;5.45;;;4.10;;
46198;SDS011;31928;52.104;10.030;2023-03-01T14:07:08;4.53;;;4.15;;
46198;SDS011;31928;52.104;10.030;2023-03-01T14:09:42;4.53;;;4.15;;
46198;SDS011;31928;52.104;10.030;2023-03-01T14:12:29;4.63;;;4.30;;
46198;SDS011;31928;52.104;10.030;2023-03-01T14:17:52;4.80;;;4.38;;
46198;SDS011;31928;52.104;10.030;2023-03-01T14:20:40;4.35;;;4.05;;
46198;SDS011;31928;52.104;10.030;2023-03-01T14:23:10;5.22;;;4.72;;
46198;SDS011;31928;52.104;10.030;2023-03-01T14:25:45;4.68;;;4.28;;
46198;SDS011;31928;52.104;10.030;2023-03-01T14:28:18;5.00;;;4.60;;
46198;SDS011;31928;52.104;10.030;2023-03-01T14:30:51;5.40;;;4.87;;
46198;SDS011;31928;52.104;10.030;2023-03-01T14:38:27;4.50;;;4.07;;
46198;SDS011;31928;52.104;10.030;2023-03-01T14:40:57;4.50;;;4.10;;
46198;SDS011;31928;52.104;10.030;2023-03-01T14:43:30;5.78;;;4.97;;
46198;SDS011;31928;52.104;10.030;2023-03-01T14:45:57;4.32;;;3.85;;
46198;SDS011;31928;52.104;10.030;2023-03-01T14:48:24;4.75;;;4.45;;
46198;SDS011;31928;52.104;10.030;2023-03-01T14:50:53;4.43;;;4.00;;
46198;SDS011;31928;52.104;10.030;2023-03-01T14:53:24;4.10;;;3.47;;
46198;SDS011;31928;52.104;10.030;2023-03-01T14:55:57;4.05;;;3.75;;
46198;SDS011;31928;52.104;10.030;2023-03-01T15:00:59;4.05;;;3.75;;
46198;SDS011;31928;52.104;10.030;2023-03-01T15:06:01;4.72;;;4.32;;
46198;SDS011;31928;52.104;10.030;2023-03-01T15:08:28;4.32;;;4.03;;
46198;SDS011;31928;52.104;10.030;2023-03-01T15:11:03;4.47;;;4.07;;
46198;SDS011;31928;52.104;10.030;2023-03-01T15:13:40;5.00;;;4.50;;
46198;SDS011;31928;52.104;10.030;2023-03-01T15:16:08;4.53;;;4.22;;
46198;SDS011;31928;52.104;10.030;2023-03-01T15:18:37;3.95;;;3.65;;
46198;SDS011;31928;52.104;10.030;2023-03-01T15:21:13;4.32;;;3.92;;
46198;SDS011;31928;52.104;10.030;2023-03-01T15:23:47;4.40;;;4.00;;
46198;SDS011;31928;52.104;10.030;2023-03-01T15:26:22;4.28;;;3.88;;
46198;SDS011;31928;52.104;10.030;2023-03-01T15:28:57;3.97;;;3.67;;
46198;SDS011;31928;52.104;10.030;2023-03-01T15:31:27;4.53;;;4.13;;
46198;SDS011;31928;52.104;10.030;2023-03-01T15:34:21;3.78;;;3.47;;
46198;SDS011;31928;52.104;10.030;2023-03-01T15:36:50;4.13;;;3.83;;
46198;SDS011;31928;52.104;10.030;2023-03-01T15:39:23;4.93;;;4.03;;
46198;SDS011;31928;52.104;10.030;2023-03-01T15:41:56;4.03;;;3.72;;
46198;SDS011;31928;52.104;10.030;2023-03-01T15:47:21;4.38;;;3.97;;
46198;SDS011;31928;52.104;10.030;2023-03-01T15:49:51;4.68;;;4.22;;
46198;SDS011;31928;52.104;10.030;2023-03-01T15:52:28;3.90;;;3.70;;
46198;SDS011;31928;52.104;10.030;2023-03-01T15:55:03;5.00;;;4.50;;
46198;SDS011;31928;52.104;10.030;2023-03-01T15:57:42;4.05;;;3.70;;
46198;SDS011;31928;52.104;10.030;2023-03-01T16:00:09;5.28;;;4.85;;
46198;SDS011;31928;52.104;10.030;2023-03-01T16:02:39;4.25;;;3.85;;
46198;SDS011;31928;52.104;10.030;2023-03-01T16:05:12;4.05;;;3.75;;
46198;SDS011;31928;52.104;10.030;2023-03-01T16:07:45;3.88;;;3.67;;
46198;SDS011;31928;52.104;10.030;2023-03-01T16:10:12;4.10;;;3.80;;
46198;SDS011;31928;52.104;10.030;2023-03-01T16:12:39;3.85;;;3.53;;
46198;SDS011;31928;52.104;10.030;2023-03-01T16:15:13;4.30;;;4.00;;
46198;SDS011;31928;52.104;10.030;2023-03-01T16:17:44;4.10;;;3.80;;
46198;SDS011;31928;52.104;10.030;2023-03-01T16:20:11;4.43;;;4.03;;
46198;SDS011;31928;52.104;10.030;2023-03-01T16:22:51;4.18;;;3.72;;
46198;SDS011;31928;52.104;10.030;2023-03-01T16:25:18;4.47;;;4.10;;
46198;SDS011;31928;52.104;10.030;2023-03-01T16:27:46;4.93;;;4.55;;
46198;SDS011;31928;52.104;10.030;2023-03-01T16:30:16;4.68;;;4.28;;
46198;SDS011;31928;52.104;10.030;2023-03-01T16:32:45;4.20;;;3.88;;
46198;SDS011;31928;52.104;10.030;2023-03-01T16:35:14;4.85;;;4.32;;
46198;SDS011;31928;52.104;10.030;2023-03-01T16:37:42;4.82;;;4.43;;
46198;SDS011;31928;52.104;10.030;2023-03-01T16:40:21;5.25;;;4.75;;
46198;SDS011;31928;52.104;10.030;2023-03-01T16:42:50;4.70;;;4.30;;
46198;SDS011;31928;52.104;10.030;2023-03-01T16:45:17;6.70;;;6.18;;
46198;SDS011;31928;52.104;10.030;2023-03-01T16:47:50;7.38;;;6.72;;
46198;SDS011;31928;52.104;10.030;2023-03-01T16:50:20;8.60;;;7.80;;
46198;SDS011;31928;52.104;10.030;2023-03-01T16:52:47;6.80;;;6.20;;
46198;SDS011;31928;52.104;10.030;2023-03-01T16:55:14;7.63;;;7.00;;
46198;SDS011;31928;52.104;10.030;2023-03-01T16:57:41;6.60;;;6.05;;
46198;SDS011;31928;52.104;10.030;2023-03-01T17:00:07;6.50;;;6.00;;
46198;SDS011;31928;52.104;10.030;2023-03-01T17:02:37;9.10;;;8.20;;
46198;SDS011;31928;52.104;10.030;2023-03-01T17:05:04;7.85;;;7.13;;
46198;SDS011;31928;52.104;10.030;2023-03-01T17:07:31;9.32;;;7.80;;
46198;SDS011;31928;52.104;10.030;2023-03-01T17:10:00;11.05;;;7.65;;
46198;SDS011;31928;52.104;10.030;2023-03-01T17:12:27;8.38;;;7.53;;
46198;SDS011;31928;52.104;10.030;2023-03-01T17:17:20;8.30;;;7.43;;
46198;SDS011;31928;52.104;10.030;2023-03-01T17:19:49;10.57;;;9.27;;
46198;SDS011;31928;52.104;10.030;2023-03-01T17:22:16;9.75;;;8.77;;
46198;SDS011;31928;52.104;10.030;2023-03-01T17:24:43;8.25;;;7.55;;
46198;SDS011;31928;52.104;10.030;2023-03-01T17:39:57;5.00;;;4.68;;
46198;SDS011;31928;52.104;10.030;2023-03-01T17:44:51;6.30;;;5.80;;
46198;SDS011;31928;52.104;10.030;2023-03-01T17:49:44;6.40;;;5.97;;
46198;SDS011;31928;52.104;10.030;2023-03-01T17:52:11;6.00;;;5.60;;
46198;SDS011;31928;52.104;10.030;2023-03-01T17:54:37;6.50;;;6.00;;
46198;SDS011;31928;52.104;10.030;2023-03-01T17:57:04;7.30;;;6.88;;
46198;SDS011;31928;52.104;10.030;2023-03-01T17:59:31;13.05;;;11.45;;
46198;SDS011;31928;52.104;10.030;2023-03-01T18:01:59;18.73;;;14.93;;
46198;SDS011;31928;52.104;10.030;2023-03-01T18:04:27;18.73;;;13.73;;